createdAt,value
2019-06-07T00:00:54.614Z,11.80
2019-06-07T00:03:29.697Z,11.80
2019-06-07T00:05:54.955Z,11.90
2019-06-07T00:08:28.563Z,11.80
2019-06-07T00:10:55.144Z,11.80
2019-06-07T00:13:24.360Z,11.90
2019-06-07T00:15:53.612Z,11.90
2019-06-07T00:18:25.976Z,11.90
2019-06-07T00:20:53.922Z,11.90
2019-06-07T00:23:23.172Z,11.90
2019-06-07T00:25:52.511Z,11.90
2019-06-07T00:28:21.730Z,11.90
2019-06-07T00:30:52.493Z,11.70
2019-06-07T00:33:24.765Z,11.60
2019-06-07T00:35:53.005Z,11.60
2019-06-07T00:38:22.261Z,11.60
2019-06-07T00:40:51.598Z,11.60
2019-06-07T00:43:27.908Z,11.60
2019-06-07T00:45:51.628Z,11.70
2019-06-07T00:48:31.700Z,11.60
2019-06-07T00:50:54.505Z,11.60
2019-06-07T00:53:31.519Z,11.50
2019-06-07T00:55:54.734Z,11.50
2019-06-07T00:58:27.480Z,11.50
2019-06-07T01:00:54.929Z,11.50
2019-06-07T01:03:43.488Z,11.50
2019-06-07T01:06:13.115Z,11.50
2019-06-07T01:08:42.646Z,11.60
2019-06-07T01:11:13.554Z,11.60
2019-06-07T01:13:43.182Z,11.60
2019-06-07T01:16:13.735Z,11.60
2019-06-07T01:18:46.553Z,11.60
2019-06-07T01:21:15.918Z,11.60
2019-06-07T01:24:08.082Z,11.70
2019-06-07T01:26:20.558Z,11.80
2019-06-07T01:28:48.534Z,11.80
2019-06-07T01:31:21.107Z,11.80
2019-06-07T01:33:51.285Z,11.80
2019-06-07T01:36:22.323Z,11.90
2019-06-07T01:38:52.085Z,11.70
2019-06-07T01:41:25.420Z,11.70
2019-06-07T01:43:53.046Z,11.80
2019-06-07T01:46:25.377Z,11.80
2019-06-07T01:48:53.919Z,11.80
2019-06-07T01:51:24.443Z,11.80
2019-06-07T01:54:41.082Z,11.90
2019-06-07T01:56:29.251Z,11.90
2019-06-07T01:58:57.382Z,11.90
2019-06-07T02:01:34.740Z,11.90
2019-06-07T02:03:58.239Z,11.90
2019-06-07T02:06:31.826Z,11.80
2019-06-07T02:08:59.120Z,11.60
2019-06-07T02:11:31.235Z,11.50
2019-06-07T02:14:00.004Z,11.50
2019-06-07T02:16:32.411Z,11.40
2019-06-07T02:19:02.157Z,11.40
2019-06-07T02:21:34.367Z,11.50
2019-06-07T02:24:03.472Z,11.60
2019-06-07T02:26:33.223Z,11.60
2019-06-07T02:29:02.829Z,11.70
2019-06-07T02:31:39.057Z,11.80
2019-06-07T02:34:03.743Z,12.00
2019-06-07T02:36:40.995Z,12.10
2019-06-07T02:39:07.763Z,12.20
2019-06-07T02:41:39.869Z,12.10
2019-06-07T02:44:09.046Z,12.00
2019-06-07T02:46:46.813Z,11.80
2019-06-07T02:49:09.967Z,11.60
2019-06-07T02:51:41.587Z,11.50
2019-06-07T02:54:10.899Z,11.30
2019-06-07T02:56:56.203Z,11.20
2019-06-07T02:59:11.710Z,11.00
2019-06-07T03:01:42.528Z,10.90
2019-06-07T03:04:12.827Z,10.80
2019-06-07T03:06:44.257Z,10.70
2019-06-07T03:09:14.239Z,10.60
2019-06-07T03:11:44.253Z,10.60
2019-06-07T03:14:14.031Z,10.60
2019-06-07T03:16:53.107Z,10.60
2019-06-07T03:19:39.483Z,10.60
2019-06-07T03:22:09.187Z,10.60
2019-06-07T03:24:42.115Z,10.60
2019-06-07T03:27:33.954Z,10.60
2019-06-07T03:29:41.478Z,10.60
2019-06-07T03:32:10.998Z,10.60
2019-06-07T03:34:43.478Z,10.70
2019-06-07T03:37:11.901Z,10.80
2019-06-07T03:39:41.543Z,10.90
2019-06-07T03:42:11.193Z,10.90
2019-06-07T03:44:41.601Z,10.90
2019-06-07T03:47:11.318Z,10.90
2019-06-07T03:49:42.559Z,10.90
2019-06-07T03:52:12.246Z,10.90
2019-06-07T03:54:41.859Z,10.90
2019-06-07T03:57:11.446Z,10.90
2019-06-07T03:59:41.576Z,10.90
2019-06-07T04:02:11.333Z,11.00
2019-06-07T04:04:41.042Z,10.90
2019-06-07T04:07:10.574Z,11.00
2019-06-07T04:09:42.838Z,11.20
2019-06-07T04:12:11.378Z,11.30
2019-06-07T04:14:42.986Z,11.40
2019-06-07T04:17:12.289Z,11.40
2019-06-07T04:19:43.323Z,11.50
2019-06-07T04:22:13.339Z,11.50
2019-06-07T04:24:42.969Z,11.60
2019-06-07T04:27:12.571Z,11.60
2019-06-07T04:30:05.857Z,11.60
2019-06-07T04:32:13.473Z,11.70
2019-06-07T04:34:43.478Z,11.50
2019-06-07T04:37:14.219Z,11.60
2019-06-07T04:39:45.559Z,11.80
2019-06-07T04:42:18.027Z,11.90
2019-06-07T04:44:49.057Z,12.00
2019-06-07T04:47:24.715Z,12.10
2019-06-07T04:49:54.994Z,12.00
2019-06-07T04:52:24.639Z,12.00
2019-06-07T04:54:54.267Z,12.00
2019-06-07T04:57:23.985Z,12.10
2019-06-07T05:00:11.927Z,12.20
2019-06-07T05:02:24.904Z,12.30
2019-06-07T05:04:55.288Z,12.40
2019-06-07T05:07:46.322Z,12.50
2019-06-07T05:10:15.909Z,12.50
2019-06-07T05:12:45.736Z,12.60
2019-06-07T05:15:15.412Z,12.50
2019-06-07T05:17:45.903Z,12.50
2019-06-07T05:20:22.388Z,12.50
2019-06-07T05:22:57.381Z,12.50
2019-06-07T05:25:27.088Z,12.60
2019-06-07T05:27:56.719Z,12.60
2019-06-07T05:31:02.978Z,12.70
2019-06-07T05:33:08.169Z,12.80
2019-06-07T05:35:40.119Z,12.80
2019-06-07T05:38:09.281Z,12.90
2019-06-07T05:40:43.866Z,12.90
2019-06-07T05:43:24.667Z,13.00
2019-06-07T05:45:54.366Z,13.10
2019-06-07T05:48:23.904Z,13.10
2019-06-07T05:50:57.280Z,13.00
2019-06-07T05:53:26.064Z,12.80
2019-06-07T05:55:55.747Z,12.80
2019-06-07T05:58:28.101Z,13.00
2019-06-07T06:01:37.057Z,13.20
2019-06-07T06:03:29.131Z,13.30
2019-06-07T06:05:58.791Z,13.40
2019-06-07T06:08:28.047Z,13.30
2019-06-07T06:10:57.701Z,13.50
2019-06-07T06:13:27.309Z,13.60
2019-06-07T06:16:02.027Z,13.60
2019-06-07T06:18:29.085Z,13.80
2019-06-07T06:21:16.454Z,13.90
2019-06-07T06:23:30.029Z,13.90
2019-06-07T06:25:59.772Z,14.00
2019-06-07T06:28:29.375Z,14.20
2019-06-07T06:30:58.963Z,14.30
2019-06-07T06:33:34.368Z,14.30
2019-06-07T06:35:59.818Z,14.40
2019-06-07T06:38:29.453Z,14.50
2019-06-07T06:41:14.342Z,14.30
2019-06-07T06:43:30.385Z,14.30
2019-06-07T06:46:00.060Z,14.50
2019-06-07T06:48:33.646Z,14.60
2019-06-07T06:51:03.215Z,14.70
2019-06-07T06:53:32.861Z,14.80
2019-06-07T06:56:02.434Z,14.90
2019-06-07T06:59:18.712Z,14.90
2019-06-07T07:01:06.970Z,15.00
2019-06-07T07:03:57.330Z,15.10
2019-06-07T07:06:25.174Z,15.10
2019-06-07T07:08:38.423Z,15.20
2019-06-07T07:11:08.111Z,15.30
2019-06-07T07:13:37.689Z,15.30
2019-06-07T07:16:07.414Z,15.40
2019-06-07T07:18:36.975Z,15.50
2019-06-07T07:21:06.509Z,15.60
2019-06-07T07:23:36.031Z,15.60
2019-06-07T07:26:05.785Z,15.70
2019-06-07T07:28:35.344Z,15.80
2019-06-07T07:31:04.988Z,15.90
2019-06-07T07:34:21.002Z,15.90
2019-06-07T07:36:28.117Z,16.10
2019-06-07T07:38:37.164Z,16.20
2019-06-07T07:41:14.652Z,16.30
2019-06-07T07:43:38.084Z,16.30
2019-06-07T07:46:28.624Z,16.50
2019-06-07T07:48:39.065Z,16.50
2019-06-07T07:51:08.716Z,16.60
2019-06-07T07:53:52.079Z,16.60
2019-06-07T07:56:09.626Z,16.70
2019-06-07T07:58:39.349Z,16.80
2019-06-07T08:01:11.008Z,16.90
2019-06-07T08:03:40.207Z,16.90
2019-06-07T08:06:09.767Z,17.00
2019-06-07T08:08:39.597Z,17.00
2019-06-07T08:11:09.373Z,17.10
2019-06-07T08:13:39.113Z,17.20
2019-06-07T08:16:16.254Z,17.40
2019-06-07T08:18:43.190Z,17.50
2019-06-07T08:21:24.817Z,17.60
2019-06-07T08:23:47.597Z,17.70
2019-06-07T08:26:22.339Z,17.80
2019-06-07T08:28:55.888Z,17.80
2019-06-07T08:31:25.152Z,17.90
2019-06-07T08:33:58.055Z,18.00
2019-06-07T08:36:41.351Z,18.00
2019-06-07T08:39:06.800Z,18.10
2019-06-07T08:41:31.197Z,18.20
2019-06-07T08:44:21.746Z,18.30
2019-06-07T08:46:33.277Z,18.40
2019-06-07T08:49:04.745Z,18.40
2019-06-07T08:51:34.375Z,18.50
2019-06-07T08:54:21.621Z,18.60
2019-06-07T08:56:35.583Z,18.60
2019-06-07T08:59:11.060Z,18.70
2019-06-07T09:01:36.585Z,18.70
2019-06-07T09:04:09.925Z,18.80
2019-06-07T09:07:02.702Z,18.90
2019-06-07T09:09:09.258Z,18.90
2019-06-07T09:11:38.908Z,19.00
2019-06-07T09:14:09.163Z,19.10
2019-06-07T09:16:39.144Z,19.10
2019-06-07T09:19:10.968Z,19.20
2019-06-07T09:21:40.107Z,19.30
2019-06-07T09:24:11.792Z,19.40
2019-06-07T09:26:40.913Z,19.50
2019-06-07T09:29:12.003Z,19.60
2019-06-07T09:31:52.878Z,19.70
2019-06-07T09:34:15.344Z,19.80
2019-06-07T09:36:44.790Z,19.80
2019-06-07T09:39:23.605Z,19.90
2019-06-07T09:41:53.264Z,19.90
2019-06-07T09:44:26.169Z,20.00
2019-06-07T09:47:12.901Z,20.00
2019-06-07T09:49:31.929Z,20.10
2019-06-07T09:51:57.922Z,20.10
2019-06-07T09:55:03.317Z,20.20
2019-06-07T09:57:02.648Z,20.20
2019-06-07T09:59:30.414Z,20.30
2019-06-07T10:02:02.753Z,20.40
2019-06-07T10:04:31.771Z,20.50
2019-06-07T10:07:09.123Z,20.60
2019-06-07T10:12:04.723Z,20.70
2019-06-07T10:14:34.366Z,20.70
2019-06-07T10:17:05.057Z,20.80
2019-06-07T10:19:34.681Z,20.80
2019-06-07T10:22:05.466Z,20.80
2019-06-07T10:24:35.300Z,20.90
2019-06-07T10:27:12.431Z,21.00
2019-06-07T10:29:49.827Z,21.10
2019-06-07T10:32:19.420Z,21.20
2019-06-07T10:34:48.988Z,21.20
2019-06-07T10:37:18.625Z,21.30
2019-06-07T10:39:49.409Z,21.40
2019-06-07T10:42:30.993Z,21.50
2019-06-07T10:45:02.614Z,21.60
2019-06-07T10:47:31.915Z,21.60
2019-06-07T10:50:01.888Z,21.60
2019-06-07T10:52:37.748Z,21.70
2019-06-07T10:55:08.663Z,21.70
2019-06-07T10:57:41.402Z,21.80
2019-06-07T11:00:13.212Z,22.00
2019-06-07T11:02:43.269Z,22.00
2019-06-07T11:05:14.494Z,22.00
2019-06-07T11:07:44.410Z,22.10
2019-06-07T11:10:19.063Z,22.10
2019-06-07T11:12:45.761Z,22.10
2019-06-07T11:15:15.480Z,22.20
2019-06-07T11:17:45.011Z,22.30
2019-06-07T11:20:16.273Z,22.40
2019-06-07T11:22:45.993Z,22.40
2019-06-07T11:25:16.212Z,22.40
2019-06-07T11:27:45.832Z,22.50
2019-06-07T11:30:15.530Z,22.50
2019-06-07T11:32:53.459Z,22.50
2019-06-07T11:35:26.291Z,22.60
2019-06-07T11:43:14.851Z,22.80
2019-06-07T11:45:44.522Z,22.80
2019-06-07T11:48:15.392Z,22.80
2019-06-07T11:50:45.117Z,22.90
2019-06-07T11:53:14.724Z,23.00
2019-06-07T11:55:44.214Z,23.00
2019-06-07T11:58:17.217Z,23.10
2019-06-07T12:00:45.181Z,23.20
2019-06-07T12:03:15.846Z,23.20
2019-06-07T12:05:45.546Z,23.40
2019-06-07T12:08:16.065Z,23.40
2019-06-07T12:10:45.785Z,23.40
2019-06-07T12:13:15.899Z,23.50
2019-06-07T12:15:48.896Z,23.60
2019-06-07T12:18:17.916Z,23.70
2019-06-07T12:20:47.455Z,23.80
2019-06-07T12:23:18.118Z,23.90
2019-06-07T12:25:47.748Z,23.90
2019-06-07T12:28:17.296Z,23.90
2019-06-07T12:30:46.858Z,24.00
2019-06-07T12:33:17.730Z,24.00
2019-06-07T12:35:47.376Z,24.10
2019-06-07T12:38:18.844Z,24.10
2019-06-07T12:40:57.279Z,24.10
2019-06-07T12:43:20.798Z,24.10
2019-06-07T12:45:50.529Z,24.20
2019-06-07T12:48:22.707Z,24.30
2019-06-07T12:50:51.317Z,24.50
2019-06-07T12:53:25.836Z,24.50
2019-06-07T12:55:52.096Z,24.70
2019-06-07T12:58:29.472Z,24.70
2019-06-07T13:00:52.906Z,24.80
2019-06-07T13:03:22.673Z,25.00
2019-06-07T13:05:52.321Z,25.00
2019-06-07T13:08:22.126Z,25.10
2019-06-07T13:10:51.654Z,25.20
2019-06-07T13:13:25.768Z,25.20
2019-06-07T13:15:55.424Z,25.30
2019-06-07T13:18:25.306Z,25.40
2019-06-07T13:20:55.678Z,25.40
2019-06-07T13:23:25.422Z,25.50
2019-06-07T13:25:55.137Z,25.50
2019-06-07T13:28:24.873Z,25.60
2019-06-07T13:30:54.447Z,25.60
2019-06-07T13:33:25.656Z,25.60
2019-06-07T13:35:55.395Z,25.60
2019-06-07T13:38:29.111Z,25.70
2019-06-07T13:40:58.948Z,25.80
2019-06-07T13:43:28.575Z,25.90
2019-06-07T13:45:58.261Z,25.90
2019-06-07T13:48:28.051Z,26.00
2019-06-07T13:50:57.809Z,26.10
2019-06-07T13:53:27.384Z,26.20
2019-06-07T13:55:56.994Z,26.30
2019-06-07T13:58:26.540Z,26.40
2019-06-07T14:00:56.182Z,26.50
2019-06-07T14:03:29.242Z,26.60
2019-06-07T14:05:57.051Z,26.80
2019-06-07T14:08:27.274Z,26.80
2019-06-07T14:10:57.047Z,26.80
2019-06-07T14:13:27.989Z,26.90
2019-06-07T14:15:57.722Z,26.90
2019-06-07T14:18:28.744Z,27.00
2019-06-07T14:20:59.088Z,27.10
2019-06-07T14:23:45.833Z,27.10
2019-06-07T14:26:03.881Z,27.20
2019-06-07T14:28:34.382Z,27.30
2019-06-07T14:31:04.493Z,27.30
2019-06-07T14:33:38.808Z,27.40
2019-06-07T14:36:12.074Z,27.50
2019-06-07T14:38:41.650Z,27.70
2019-06-07T14:41:11.310Z,27.80
2019-06-07T14:43:40.893Z,27.80
2019-06-07T14:46:15.994Z,27.80
2019-06-07T14:48:45.586Z,27.90
2019-06-07T14:51:15.122Z,27.90
2019-06-07T14:53:44.820Z,27.90
2019-06-07T14:56:14.442Z,28.00
2019-06-07T14:58:44.044Z,27.90
2019-06-07T15:01:13.634Z,27.80
2019-06-07T15:03:43.226Z,27.80
2019-06-07T15:06:12.856Z,27.70
2019-06-07T15:08:42.450Z,27.70
2019-06-07T15:11:12.053Z,27.50
2019-06-07T15:13:41.667Z,27.60
2019-06-07T15:16:11.329Z,27.80
2019-06-07T15:18:41.072Z,27.90
2019-06-07T15:21:10.726Z,27.90
2019-06-07T15:23:40.240Z,28.00
2019-06-07T15:26:09.800Z,27.90
2019-06-07T15:28:39.358Z,28.00
2019-06-07T15:31:08.935Z,28.00
2019-06-07T15:33:38.561Z,27.60
2019-06-07T15:36:08.193Z,27.40
2019-06-07T15:38:39.110Z,27.30
2019-06-07T15:41:09.210Z,27.30
2019-06-07T15:43:39.382Z,27.00
2019-06-07T15:46:09.067Z,26.40
2019-06-07T15:48:40.068Z,25.90
2019-06-07T15:51:10.038Z,25.50
2019-06-07T15:53:44.069Z,25.20
2019-06-07T15:56:11.028Z,24.80
2019-06-07T15:58:41.724Z,24.40
2019-06-07T16:01:12.719Z,24.10
2019-06-07T16:03:42.553Z,23.70
2019-06-07T16:06:12.294Z,23.20
2019-06-07T16:08:42.627Z,22.60
2019-06-07T16:11:12.509Z,22.30
2019-06-07T16:13:42.857Z,22.20
2019-06-07T16:16:13.199Z,22.20
2019-06-07T16:18:44.273Z,22.40
2019-06-07T16:21:14.512Z,22.50
2019-06-07T16:23:45.035Z,22.60
2019-06-07T16:26:14.956Z,22.60
2019-06-07T16:28:45.566Z,22.60
2019-06-07T16:31:15.168Z,22.60
2019-06-07T16:33:45.181Z,22.50
2019-06-07T16:36:15.050Z,22.50
2019-06-07T16:38:44.666Z,22.40
2019-06-07T16:41:14.317Z,22.40
2019-06-07T16:43:44.798Z,22.30
2019-06-07T16:46:14.624Z,22.10
2019-06-07T16:48:45.057Z,22.00
2019-06-07T16:51:14.741Z,21.80
2019-06-07T16:53:44.606Z,21.60
2019-06-07T16:56:14.287Z,21.50
2019-06-07T16:58:44.437Z,21.40
2019-06-07T17:01:15.046Z,21.30
2019-06-07T17:03:45.678Z,21.40
2019-06-07T17:06:15.572Z,21.50
2019-06-07T17:08:46.228Z,21.30
2019-06-07T17:11:16.223Z,21.00
2019-06-07T17:13:46.477Z,20.80
2019-06-07T17:16:17.161Z,20.10
2019-06-07T17:18:47.408Z,19.50
2019-06-07T17:21:17.422Z,19.00
2019-06-07T17:23:47.445Z,18.60
2019-06-07T17:26:17.347Z,18.20
2019-06-07T17:28:47.767Z,17.90
2019-06-07T17:31:17.850Z,17.50
2019-06-07T17:33:48.110Z,17.40
2019-06-07T17:36:18.246Z,17.20
2019-06-07T17:38:48.667Z,17.00
2019-06-07T17:41:18.555Z,16.80
2019-06-07T17:43:57.703Z,16.60
2019-06-07T17:46:20.502Z,16.50
2019-06-07T17:48:51.666Z,16.40
2019-06-07T17:51:21.649Z,16.30
2019-06-07T17:53:54.821Z,16.20
2019-06-07T17:56:24.942Z,16.20
2019-06-07T17:58:54.738Z,16.10
2019-06-07T18:01:24.507Z,16.10
2019-06-07T18:03:58.682Z,16.00
2019-06-07T18:06:29.085Z,15.90
2019-06-07T18:09:00.821Z,15.90
2019-06-07T18:11:30.999Z,15.90
2019-06-07T18:14:10.226Z,15.80
2019-06-07T18:16:32.110Z,15.80
2019-06-07T18:19:01.843Z,15.70
2019-06-07T18:21:31.572Z,15.60
2019-06-07T18:24:01.333Z,15.60
2019-06-07T18:26:30.934Z,15.50
2019-06-07T18:29:01.147Z,15.50
2019-06-07T18:31:30.751Z,15.40
2019-06-07T18:34:00.430Z,15.40
2019-06-07T18:36:31.242Z,15.40
2019-06-07T18:39:00.956Z,15.40
2019-06-07T18:41:33.352Z,15.30
2019-06-07T18:44:03.147Z,15.30
2019-06-07T18:46:33.397Z,15.30
2019-06-07T18:49:03.149Z,15.20
2019-06-07T18:51:32.766Z,15.20
2019-06-07T18:54:03.137Z,15.30
2019-06-07T18:56:34.014Z,15.30
2019-06-07T18:59:07.158Z,15.20
2019-06-07T19:01:38.267Z,15.20
2019-06-07T19:04:08.186Z,15.10
2019-06-07T19:06:38.442Z,15.10
2019-06-07T19:09:09.011Z,15.10
2019-06-07T19:11:38.667Z,15.10
2019-06-07T19:14:08.533Z,15.10
2019-06-07T19:16:38.342Z,15.00
2019-06-07T19:19:10.922Z,15.00
2019-06-07T19:21:40.933Z,15.00
2019-06-07T19:24:10.789Z,15.00
2019-06-07T19:26:40.734Z,14.90
2019-06-07T19:29:10.777Z,14.80
2019-06-07T19:31:40.600Z,14.70
2019-06-07T19:34:10.458Z,14.60
2019-06-07T19:36:48.708Z,14.60
2019-06-07T19:39:12.229Z,14.60
2019-06-07T19:41:42.226Z,14.60
2019-06-07T19:44:12.200Z,14.60
2019-06-07T19:46:42.211Z,14.70
2019-06-07T19:49:12.021Z,14.70
2019-06-07T19:51:42.023Z,14.80
2019-06-07T19:54:11.616Z,14.70
2019-06-07T19:56:41.513Z,14.70
2019-06-07T19:59:11.057Z,14.80
2019-06-07T20:01:40.760Z,14.90
2019-06-07T20:04:10.372Z,15.00
2019-06-07T20:06:40.067Z,15.10
2019-06-07T20:09:10.203Z,15.30
2019-06-07T20:11:41.404Z,15.40
2019-06-07T20:14:11.096Z,15.40
2019-06-07T20:16:40.725Z,15.30
2019-06-07T20:19:10.369Z,15.20
2019-06-07T20:21:40.083Z,15.20
2019-06-07T20:24:24.803Z,15.10
2019-06-07T20:26:41.839Z,15.10
2019-06-07T20:29:25.530Z,15.20
2019-06-07T20:31:42.730Z,15.10
2019-06-07T20:34:12.333Z,15.20
2019-06-07T20:36:45.108Z,15.00
2019-06-07T20:39:13.360Z,14.90
2019-06-07T20:41:43.181Z,15.00
2019-06-07T20:44:12.930Z,14.80
2019-06-07T20:46:42.550Z,14.60
2019-06-07T20:49:12.160Z,14.40
2019-06-07T20:51:41.744Z,14.30
2019-06-07T20:54:11.347Z,13.90
2019-06-07T20:56:40.992Z,13.70
2019-06-07T20:59:10.558Z,13.60
2019-06-07T21:01:42.728Z,13.60
2019-06-07T21:04:11.571Z,13.50
2019-06-07T21:06:41.094Z,13.60
2019-06-07T21:09:10.594Z,13.60
2019-06-07T21:11:40.114Z,13.60
2019-06-07T21:14:10.291Z,13.60
2019-06-07T21:16:42.820Z,13.60
2019-06-07T21:19:12.746Z,13.60
2019-06-07T21:21:42.309Z,13.60
2019-06-07T21:24:11.835Z,13.60
2019-06-07T21:26:41.379Z,13.70
2019-06-07T21:29:12.081Z,13.70
2019-06-07T21:31:41.584Z,13.70
2019-06-07T21:34:13.975Z,13.60
2019-06-07T21:36:42.351Z,13.60
2019-06-07T21:39:12.441Z,13.50
2019-06-07T21:41:42.126Z,13.50
2019-06-07T21:44:12.410Z,13.50
2019-06-07T21:46:42.024Z,13.50
2019-06-07T21:49:12.782Z,13.40
2019-06-07T21:51:42.440Z,13.40
2019-06-07T21:54:14.735Z,13.30
2019-06-07T21:56:43.241Z,13.30
2019-06-07T21:59:13.360Z,13.30
2019-06-07T22:01:43.122Z,13.30
2019-06-07T22:04:13.691Z,13.40
2019-06-07T22:06:43.467Z,13.50
2019-06-07T22:09:14.565Z,13.50
2019-06-07T22:11:44.578Z,13.40
2019-06-07T22:14:14.493Z,13.00
2019-06-07T22:16:44.476Z,12.90
2019-06-07T22:19:14.925Z,12.70
2019-06-07T22:21:44.835Z,12.60
2019-06-07T22:24:15.114Z,12.50
2019-06-07T22:26:44.851Z,12.40
2019-06-07T22:29:14.495Z,12.40
2019-06-07T22:31:44.342Z,12.30
2019-06-07T22:34:15.094Z,12.40
2019-06-07T22:36:45.290Z,12.30
2019-06-07T22:39:15.830Z,12.30
2019-06-07T22:41:45.811Z,12.30
2019-06-07T22:44:15.361Z,12.40
2019-06-07T22:46:44.842Z,12.40
2019-06-07T22:49:15.350Z,12.40
2019-06-07T22:51:44.961Z,12.40
2019-06-07T22:54:14.461Z,12.40
2019-06-07T22:56:52.367Z,12.50
2019-06-07T22:59:21.906Z,12.50
2019-06-07T23:01:51.678Z,12.40
2019-06-07T23:04:21.332Z,12.50
2019-06-07T23:06:50.925Z,12.50
2019-06-07T23:09:20.547Z,12.50
2019-06-07T23:11:50.309Z,12.50
2019-06-07T23:14:19.919Z,12.50
2019-06-07T23:16:55.407Z,12.60
2019-06-07T23:19:20.816Z,12.60
2019-06-07T23:21:50.458Z,12.60
2019-06-07T23:24:21.504Z,12.60
2019-06-07T23:26:51.313Z,12.60
2019-06-07T23:29:20.899Z,12.50
2019-06-07T23:31:50.504Z,12.60
2019-06-07T23:34:21.041Z,12.60
2019-06-07T23:36:50.788Z,12.50
2019-06-07T23:39:22.258Z,12.40
2019-06-07T23:41:51.668Z,12.40
2019-06-07T23:44:21.524Z,12.40
2019-06-07T23:46:51.234Z,12.40
2019-06-07T23:49:22.424Z,12.40
2019-06-07T23:51:52.259Z,12.40
2019-06-07T23:54:22.194Z,12.30
2019-06-07T23:56:51.919Z,12.40
2019-06-07T23:59:22.431Z,12.30
